Time;durP1;ratioP1;P1;durP2;ratioP2;P2;SDS_P1;SDS_P2;PMS_P1;PMS_P2;Temp;Humidity;BMP_temperature;BMP_pressure;BME280_temperature;BME280_humidity;BME280_pressure;Samples;Min_cycle;Max_cycle;Signal;HPM_P1;HPM_P2
2022/10/01 00:01:28;;;;;;;;;;;22.90;44.60;;;;;;486820;245;1230;-74
2022/10/01 00:03:30;;;;;;;;;;;22.90;44.60;;;;;;486552;245;1143;-74
2022/10/01 00:05:31;;;;;;;;;;;22.90;44.60;;;;;;486816;245;1465;-74
2022/10/01 00:07:32;;;;;;;;;;;23.00;44.60;;;;;;486766;245;2178;-74
2022/10/01 00:09:33;;;;;;;;;;;23.00;44.60;;;;;;486978;244;1108;-75
2022/10/01 00:11:35;;;;;;;;;;;23.00;44.50;;;;;;486804;245;1106;-75
2022/10/01 00:13:37;;;;;;;;;;;23.00;44.60;;;;;;486770;245;1337;-75
2022/10/01 00:15:37;;;;;;;;;;;23.00;44.60;;;;;;486758;244;1512;-75
2022/10/01 00:17:39;;;;;;;;;;;22.90;44.60;;;;;;486757;245;1148;-75
2022/10/01 00:19:40;;;;;;;;;;;22.90;44.60;;;;;;486779;244;1401;-75
2022/10/01 00:21:41;;;;;;;;;;;22.90;44.70;;;;;;486789;245;1330;-75
2022/10/01 00:23:43;;;;;;;;;;;22.90;44.70;;;;;;486759;245;1132;-75
2022/10/01 00:25:44;;;;;;;;;;;22.80;44.80;;;;;;486813;245;2199;-75
2022/10/01 00:27:45;;;;;;;;;;;22.90;44.90;;;;;;486801;245;1123;-75
2022/10/01 00:29:47;;;;;;;;;;;22.90;44.80;;;;;;486743;245;1166;-75
2022/10/01 00:31:48;;;;;;;;;;;22.90;44.80;;;;;;486875;245;1153;-75
2022/10/01 00:33:49;;;;;;;;;;;22.90;44.80;;;;;;486654;244;1074;-75
2022/10/01 00:35:51;;;;;;;;;;;22.80;44.80;;;;;;486804;245;1139;-75
2022/10/01 00:37:52;;;;;;;;;;;22.90;44.90;;;;;;486830;244;1160;-75
2022/10/01 00:39:53;;;;;;;;;;;22.80;45.00;;;;;;486851;244;1099;-75
2022/10/01 00:41:55;;;;;;;;;;;22.90;44.90;;;;;;486779;245;1200;-75
2022/10/01 00:43:56;;;;;;;;;;;22.90;44.90;;;;;;486829;245;1189;-75
2022/10/01 00:45:58;;;;;;;;;;;22.90;44.90;;;;;;486753;245;2131;-75
2022/10/01 00:47:59;;;;;;;;;;;22.90;44.90;;;;;;486938;244;1129;-75
2022/10/01 00:50:01;;;;;;;;;;;22.90;44.90;;;;;;486742;245;1138;-75
2022/10/01 00:52:02;;;;;;;;;;;22.90;44.90;;;;;;486878;245;1150;-75
2022/10/01 00:54:03;;;;;;;;;;;22.90;45.00;;;;;;486855;245;1197;-75
2022/10/01 00:56:05;;;;;;;;;;;22.80;45.00;;;;;;486748;245;1073;-75
2022/10/01 00:58:06;;;;;;;;;;;22.80;45.00;;;;;;486867;244;1411;-75
2022/10/01 01:00:08;;;;;;;;;;;22.80;44.90;;;;;;486714;245;1191;-75
2022/10/01 01:02:10;;;;;;;;;;;22.80;45.00;;;;;;486726;244;1087;-75
2022/10/01 01:04:15;;;;;;;;;;;22.90;44.90;;;;;;486568;245;1158;-74
2022/10/01 01:06:17;;;;;;;;;;;22.90;44.80;;;;;;486735;244;2198;-75
2022/10/01 01:08:18;;;;;;;;;;;22.90;44.90;;;;;;486840;244;1136;-75
2022/10/01 01:10:19;;;;;;;;;;;22.90;44.90;;;;;;486722;245;1197;-75
2022/10/01 01:12:21;;;;;;;;;;;22.80;44.90;;;;;;486663;244;1200;-75
2022/10/01 01:14:22;;;;;;;;;;;22.80;45.00;;;;;;486725;245;1190;-75
2022/10/01 01:16:23;;;;;;;;;;;22.80;45.00;;;;;;486606;244;1125;-75
2022/10/01 01:18:25;;;;;;;;;;;22.80;45.10;;;;;;486708;245;1246;-75
2022/10/01 01:20:27;;;;;;;;;;;22.80;45.00;;;;;;486692;244;1165;-75
2022/10/01 01:22:27;;;;;;;;;;;22.80;44.90;;;;;;486478;245;1554;-74
2022/10/01 01:24:29;;;;;;;;;;;22.80;44.90;;;;;;486787;245;1176;-74
2022/10/01 01:26:30;;;;;;;;;;;22.90;44.90;;;;;;486697;244;2194;-74
2022/10/01 01:28:31;;;;;;;;;;;22.80;44.90;;;;;;486797;245;1213;-74
2022/10/01 01:30:33;;;;;;;;;;;22.90;44.90;;;;;;486863;244;1763;-74
2022/10/01 01:32:34;;;;;;;;;;;22.80;44.90;;;;;;486668;245;1161;-74
2022/10/01 01:34:36;;;;;;;;;;;22.90;44.90;;;;;;486801;245;1234;-74
2022/10/01 01:36:37;;;;;;;;;;;22.80;44.90;;;;;;486732;245;1191;-74
2022/10/01 01:38:38;;;;;;;;;;;22.80;44.90;;;;;;486756;245;1187;-74
2022/10/01 01:40:40;;;;;;;;;;;22.80;45.00;;;;;;486756;245;1212;-74
2022/10/01 01:42:41;;;;;;;;;;;22.80;44.90;;;;;;486902;244;1215;-74
2022/10/01 01:44:43;;;;;;;;;;;22.80;44.90;;;;;;486834;245;1135;-74
2022/10/01 01:46:45;;;;;;;;;;;22.80;44.80;;;;;;486830;245;2179;-75
2022/10/01 01:48:48;;;;;;;;;;;22.90;44.70;;;;;;486853;245;1429;-75
2022/10/01 01:50:48;;;;;;;;;;;22.80;44.70;;;;;;486614;245;1479;-75
2022/10/01 01:52:50;;;;;;;;;;;22.80;44.70;;;;;;486692;245;1179;-75
2022/10/01 01:54:50;;;;;;;;;;;22.80;44.70;;;;;;486800;245;1583;-75
2022/10/01 01:56:52;;;;;;;;;;;22.80;44.70;;;;;;486633;245;1317;-75
2022/10/01 01:58:53;;;;;;;;;;;22.80;44.70;;;;;;486811;245;1164;-75
2022/10/01 02:00:54;;;;;;;;;;;22.80;44.70;;;;;;486592;244;1128;-74
2022/10/01 02:02:56;;;;;;;;;;;22.80;44.80;;;;;;486563;245;1178;-74
2022/10/01 02:04:58;;;;;;;;;;;22.80;44.60;;;;;;486724;245;1111;-74
2022/10/01 02:07:00;;;;;;;;;;;22.80;44.60;;;;;;486598;245;2156;-75
2022/10/01 02:09:00;;;;;;;;;;;22.80;44.50;;;;;;486768;245;1506;-75
2022/10/01 02:11:02;;;;;;;;;;;22.80;44.60;;;;;;486830;245;1082;-75
2022/10/01 02:13:03;;;;;;;;;;;22.90;44.50;;;;;;486920;244;1025;-75
2022/10/01 02:15:04;;;;;;;;;;;22.90;44.40;;;;;;486765;245;1091;-75
2022/10/01 02:17:06;;;;;;;;;;;22.90;44.40;;;;;;486830;244;1100;-75
2022/10/01 02:19:07;;;;;;;;;;;22.80;44.50;;;;;;486752;245;1054;-75
2022/10/01 02:21:08;;;;;;;;;;;22.80;44.50;;;;;;486787;245;1058;-75
2022/10/01 02:23:10;;;;;;;;;;;22.80;44.50;;;;;;486939;244;1254;-75
2022/10/01 02:25:11;;;;;;;;;;;22.70;44.50;;;;;;486835;245;1178;-74
2022/10/01 02:27:13;;;;;;;;;;;22.70;44.50;;;;;;486807;244;2167;-74
2022/10/01 02:29:14;;;;;;;;;;;22.70;44.50;;;;;;486716;244;1146;-74
2022/10/01 02:31:16;;;;;;;;;;;22.70;44.60;;;;;;486856;245;1080;-74
2022/10/01 02:33:17;;;;;;;;;;;22.70;44.50;;;;;;486487;245;1562;-74
2022/10/01 02:35:18;;;;;;;;;;;22.70;44.60;;;;;;486782;244;1099;-74
2022/10/01 02:37:20;;;;;;;;;;;22.70;44.50;;;;;;486760;245;1087;-74
2022/10/01 02:39:21;;;;;;;;;;;22.60;44.40;;;;;;486844;245;1120;-75
2022/10/01 02:41:22;;;;;;;;;;;22.70;44.40;;;;;;486790;244;1187;-75
2022/10/01 02:43:24;;;;;;;;;;;22.70;44.30;;;;;;486721;245;1163;-75
2022/10/01 02:45:25;;;;;;;;;;;22.70;44.20;;;;;;486788;244;1082;-75
2022/10/01 02:47:26;;;;;;;;;;;22.70;44.10;;;;;;486761;245;2194;-75
2022/10/01 02:49:28;;;;;;;;;;;22.70;44.20;;;;;;486786;245;1153;-75
2022/10/01 02:51:29;;;;;;;;;;;22.70;44.10;;;;;;486805;245;1112;-75
2022/10/01 02:53:30;;;;;;;;;;;22.70;44.10;;;;;;486721;245;1091;-75
2022/10/01 02:55:32;;;;;;;;;;;22.70;43.90;;;;;;486819;245;1132;-75
2022/10/01 02:57:33;;;;;;;;;;;22.80;43.90;;;;;;486897;244;1084;-74
2022/10/01 02:59:34;;;;;;;;;;;22.80;43.80;;;;;;486716;244;1457;-74
2022/10/01 03:01:36;;;;;;;;;;;22.80;43.70;;;;;;486769;245;1105;-74
2022/10/01 03:03:38;;;;;;;;;;;22.80;43.70;;;;;;486607;244;1124;-75
2022/10/01 03:05:38;;;;;;;;;;;22.90;43.40;;;;;;486698;245;1432;-75
2022/10/01 03:07:40;;;;;;;;;;;22.90;43.30;;;;;;486724;245;2190;-75
2022/10/01 03:09:41;;;;;;;;;;;23.00;43.20;;;;;;486734;245;1182;-75
2022/10/01 03:11:42;;;;;;;;;;;23.10;43.00;;;;;;486749;245;1150;-75
2022/10/01 03:13:44;;;;;;;;;;;23.10;42.80;;;;;;486764;244;1078;-74
2022/10/01 03:15:45;;;;;;;;;;;23.10;42.70;;;;;;486878;245;1062;-75
2022/10/01 03:17:46;;;;;;;;;;;23.20;42.60;;;;;;486765;244;1208;-75
2022/10/01 03:19:48;;;;;;;;;;;23.20;42.60;;;;;;486815;245;1073;-75
2022/10/01 03:21:49;;;;;;;;;;;23.10;42.50;;;;;;486870;244;1125;-75
2022/10/01 03:23:50;;;;;;;;;;;23.10;42.50;;;;;;486778;245;1187;-75
2022/10/01 03:25:52;;;;;;;;;;;23.10;42.50;;;;;;486740;245;1179;-75
2022/10/01 03:27:53;;;;;;;;;;;23.10;42.50;;;;;;486729;245;2205;-75
2022/10/01 03:29:54;;;;;;;;;;;23.00;42.60;;;;;;486743;245;1099;-75
2022/10/01 03:31:56;;;;;;;;;;;23.00;42.60;;;;;;486770;245;1134;-75
2022/10/01 03:33:59;;;;;;;;;;;22.90;42.60;;;;;;486569;245;1084;-74
2022/10/01 03:35:58;;;;;;;;;;;22.90;42.70;;;;;;486670;245;1469;-74
2022/10/01 03:38:01;;;;;;;;;;;22.90;42.70;;;;;;486809;245;1048;-74
2022/10/01 03:40:01;;;;;;;;;;;22.90;42.60;;;;;;486646;245;1485;-74
2022/10/01 03:42:03;;;;;;;;;;;22.80;42.60;;;;;;486743;245;1158;-74
2022/10/01 03:44:04;;;;;;;;;;;22.80;42.60;;;;;;486743;245;1039;-75
2022/10/01 03:46:05;;;;;;;;;;;22.70;42.70;;;;;;486820;245;1091;-75
2022/10/01 03:48:06;;;;;;;;;;;22.70;42.70;;;;;;486725;245;2197;-75
2022/10/01 03:50:08;;;;;;;;;;;22.70;42.60;;;;;;486798;245;1209;-75
2022/10/01 03:52:09;;;;;;;;;;;22.70;42.60;;;;;;486761;245;1108;-75
2022/10/01 03:54:10;;;;;;;;;;;22.70;42.60;;;;;;486850;244;1111;-75
2022/10/01 03:56:12;;;;;;;;;;;22.70;42.60;;;;;;486879;245;1199;-75
2022/10/01 03:58:13;;;;;;;;;;;22.70;42.50;;;;;;486787;245;1095;-75
2022/10/01 04:00:15;;;;;;;;;;;22.70;42.40;;;;;;486808;244;1332;-75
2022/10/01 04:02:16;;;;;;;;;;;22.70;42.40;;;;;;486776;244;1129;-75
2022/10/01 04:04:17;;;;;;;;;;;22.80;42.30;;;;;;486751;245;1086;-75
2022/10/01 04:06:19;;;;;;;;;;;22.70;42.20;;;;;;486735;245;1133;-75
2022/10/01 04:08:20;;;;;;;;;;;22.70;42.20;;;;;;486745;245;2159;-75
2022/10/01 04:10:21;;;;;;;;;;;22.70;42.20;;;;;;486886;244;1102;-75
2022/10/01 04:12:23;;;;;;;;;;;22.70;42.20;;;;;;486797;245;1205;-75
2022/10/01 04:14:24;;;;;;;;;;;22.70;42.10;;;;;;486704;245;1145;-75
2022/10/01 04:16:25;;;;;;;;;;;22.70;42.20;;;;;;486828;244;1339;-75
2022/10/01 04:18:26;;;;;;;;;;;22.70;42.20;;;;;;486726;245;1196;-75
2022/10/01 04:20:28;;;;;;;;;;;22.70;42.20;;;;;;486777;244;1123;-75
2022/10/01 04:22:29;;;;;;;;;;;22.60;42.10;;;;;;486850;245;1175;-75
2022/10/01 04:24:30;;;;;;;;;;;22.70;42.10;;;;;;486752;244;1182;-75
2022/10/01 04:26:32;;;;;;;;;;;22.70;42.00;;;;;;486809;245;1231;-75
2022/10/01 04:28:33;;;;;;;;;;;22.70;42.00;;;;;;486771;245;2186;-75
2022/10/01 04:30:34;;;;;;;;;;;22.70;42.00;;;;;;486789;244;1117;-75
2022/10/01 04:32:36;;;;;;;;;;;22.70;42.00;;;;;;486727;244;1059;-75
2022/10/01 04:34:52;;;;;;;;;;;22.70;42.10;;;;;;486731;245;1111;-75
2022/10/01 04:36:54;;;;;;;;;;;22.70;42.10;;;;;;486948;244;1149;-74
2022/10/01 04:38:55;;;;;;;;;;;22.70;41.90;;;;;;486835;245;1205;-75
2022/10/01 04:40:57;;;;;;;;;;;22.60;42.00;;;;;;486845;244;1221;-75
2022/10/01 04:42:58;;;;;;;;;;;22.60;42.00;;;;;;486852;244;1145;-75
2022/10/01 04:44:59;;;;;;;;;;;22.70;41.90;;;;;;486773;245;1106;-75
2022/10/01 04:47:01;;;;;;;;;;;22.70;41.70;;;;;;486759;245;1115;-75
2022/10/01 04:49:02;;;;;;;;;;;22.70;41.70;;;;;;486827;244;2179;-75
2022/10/01 04:51:03;;;;;;;;;;;22.70;41.70;;;;;;486755;245;1067;-75
2022/10/01 04:53:05;;;;;;;;;;;22.60;41.70;;;;;;486756;244;1193;-75
2022/10/01 04:55:06;;;;;;;;;;;22.70;41.70;;;;;;486807;244;1135;-75
2022/10/01 04:57:07;;;;;;;;;;;22.70;41.60;;;;;;486739;244;1404;-75
2022/10/01 04:59:09;;;;;;;;;;;22.70;41.60;;;;;;486895;244;1082;-75
2022/10/01 05:01:10;;;;;;;;;;;22.70;41.60;;;;;;486753;245;1099;-75
2022/10/01 05:03:11;;;;;;;;;;;22.70;41.60;;;;;;486543;244;1166;-74
2022/10/01 05:05:13;;;;;;;;;;;22.70;41.60;;;;;;486897;245;1168;-75
2022/10/01 05:07:14;;;;;;;;;;;22.60;41.50;;;;;;486783;244;2199;-75
2022/10/01 05:09:15;;;;;;;;;;;22.60;41.40;;;;;;486872;245;1175;-75
2022/10/01 05:11:17;;;;;;;;;;;22.70;41.50;;;;;;486831;244;1176;-74
2022/10/01 05:13:18;;;;;;;;;;;22.70;41.50;;;;;;486727;245;1110;-74
2022/10/01 05:15:19;;;;;;;;;;;22.70;41.40;;;;;;486837;244;1178;-75
2022/10/01 05:17:21;;;;;;;;;;;22.70;41.30;;;;;;486883;245;1080;-75
2022/10/01 05:19:22;;;;;;;;;;;22.70;41.40;;;;;;486804;244;1198;-75
2022/10/01 05:21:23;;;;;;;;;;;22.70;41.50;;;;;;486737;245;1106;-75
2022/10/01 05:23:25;;;;;;;;;;;22.70;41.50;;;;;;486780;245;1086;-75
2022/10/01 05:25:26;;;;;;;;;;;22.70;41.60;;;;;;486800;244;1114;-75
2022/10/01 05:27:27;;;;;;;;;;;22.60;41.60;;;;;;486763;245;2179;-75
2022/10/01 05:29:29;;;;;;;;;;;22.60;41.60;;;;;;486750;245;1051;-75
2022/10/01 05:31:31;;;;;;;;;;;22.60;41.60;;;;;;486844;245;1060;-75
2022/10/01 05:33:32;;;;;;;;;;;22.60;41.80;;;;;;486715;245;1513;-75
2022/10/01 05:35:33;;;;;;;;;;;22.60;41.90;;;;;;486681;245;1420;-75
2022/10/01 05:37:34;;;;;;;;;;;22.60;41.90;;;;;;486771;245;1057;-75
2022/10/01 05:39:35;;;;;;;;;;;22.60;41.80;;;;;;486785;245;1078;-74
2022/10/01 05:41:39;;;;;;;;;;;22.70;41.70;;;;;;486808;244;1083;-75
2022/10/01 05:43:38;;;;;;;;;;;22.60;41.70;;;;;;486742;245;1486;-75
2022/10/01 05:45:39;;;;;;;;;;;22.70;41.80;;;;;;486741;245;1051;-75
2022/10/01 05:47:41;;;;;;;;;;;22.70;41.80;;;;;;486842;244;2202;-75
2022/10/01 05:49:42;;;;;;;;;;;22.70;41.90;;;;;;486747;245;1354;-75
2022/10/01 05:51:43;;;;;;;;;;;22.60;42.00;;;;;;486836;245;1110;-75
2022/10/01 05:53:47;;;;;;;;;;;22.60;42.20;;;;;;486836;244;1037;-75
2022/10/01 05:55:46;;;;;;;;;;;22.50;42.30;;;;;;486632;245;1399;-75
2022/10/01 05:57:47;;;;;;;;;;;22.60;42.40;;;;;;486865;244;1167;-75
2022/10/01 05:59:49;;;;;;;;;;;22.60;42.50;;;;;;486800;245;1077;-74
2022/10/01 06:01:50;;;;;;;;;;;22.50;42.60;;;;;;486866;244;1109;-75
2022/10/01 06:03:51;;;;;;;;;;;22.60;42.70;;;;;;486531;245;1143;-75
2022/10/01 06:05:53;;;;;;;;;;;22.60;42.70;;;;;;486787;245;1205;-75
2022/10/01 06:07:54;;;;;;;;;;;22.60;42.70;;;;;;486772;245;2252;-75
2022/10/01 06:09:55;;;;;;;;;;;22.60;42.70;;;;;;486770;244;1148;-75
2022/10/01 06:11:57;;;;;;;;;;;22.60;42.70;;;;;;486819;245;1198;-75
2022/10/01 06:13:58;;;;;;;;;;;22.60;42.70;;;;;;486719;245;1106;-75
2022/10/01 06:16:00;;;;;;;;;;;22.60;42.70;;;;;;486722;245;1096;-75
2022/10/01 06:18:01;;;;;;;;;;;22.60;42.70;;;;;;486763;245;1186;-75
2022/10/01 06:20:02;;;;;;;;;;;22.70;42.60;;;;;;486763;245;1087;-75
2022/10/01 06:22:03;;;;;;;;;;;22.70;42.60;;;;;;486737;245;1055;-75
2022/10/01 06:24:05;;;;;;;;;;;22.70;42.70;;;;;;486731;245;1139;-75
2022/10/01 06:26:07;;;;;;;;;;;22.70;42.70;;;;;;486740;245;1199;-75
2022/10/01 06:28:07;;;;;;;;;;;22.70;42.60;;;;;;486812;244;2206;-75
2022/10/01 06:30:09;;;;;;;;;;;22.80;42.60;;;;;;486737;244;1157;-75
2022/10/01 06:32:13;;;;;;;;;;;22.70;42.70;;;;;;486723;245;1159;-75
2022/10/01 06:34:12;;;;;;;;;;;22.70;42.70;;;;;;486482;244;1435;-75
2022/10/01 06:36:13;;;;;;;;;;;22.80;42.70;;;;;;486915;244;1166;-75
2022/10/01 06:38:15;;;;;;;;;;;22.70;42.70;;;;;;486757;245;1143;-75
2022/10/01 06:40:16;;;;;;;;;;;22.70;42.80;;;;;;486784;245;1158;-75
2022/10/01 06:42:17;;;;;;;;;;;22.70;42.80;;;;;;486717;245;1117;-75
2022/10/01 06:44:19;;;;;;;;;;;22.70;42.80;;;;;;486755;245;1112;-75
2022/10/01 06:46:20;;;;;;;;;;;22.70;42.90;;;;;;486707;245;1229;-74
2022/10/01 06:48:21;;;;;;;;;;;22.70;42.80;;;;;;486807;244;2198;-74
2022/10/01 06:50:23;;;;;;;;;;;22.80;42.70;;;;;;486727;245;1193;-74
2022/10/01 06:54:43;;;;;;;;;;;22.70;42.70;;;;;;486785;245;1132;-74
2022/10/01 06:56:44;;;;;;;;;;;22.70;42.80;;;;;;486704;245;1138;-75
2022/10/01 06:58:46;;;;;;;;;;;22.70;42.80;;;;;;486784;245;1101;-75
2022/10/01 07:00:47;;;;;;;;;;;22.70;42.80;;;;;;486721;244;1124;-75
2022/10/01 07:02:48;;;;;;;;;;;22.70;42.80;;;;;;486585;245;1194;-74
2022/10/01 07:04:50;;;;;;;;;;;22.70;42.80;;;;;;486707;245;1233;-74
2022/10/01 07:06:51;;;;;;;;;;;22.70;42.80;;;;;;486756;245;1113;-74
2022/10/01 07:08:53;;;;;;;;;;;22.70;42.80;;;;;;486698;245;2178;-74
2022/10/01 07:10:54;;;;;;;;;;;22.70;42.80;;;;;;486750;245;1151;-74
2022/10/01 07:12:55;;;;;;;;;;;22.70;42.90;;;;;;486723;245;1159;-74
2022/10/01 07:14:57;;;;;;;;;;;22.70;42.90;;;;;;486801;245;1213;-75
2022/10/01 07:16:58;;;;;;;;;;;22.70;42.80;;;;;;486714;245;1602;-74
2022/10/01 07:18:59;;;;;;;;;;;22.70;42.80;;;;;;486762;244;1179;-75
2022/10/01 07:21:01;;;;;;;;;;;22.80;42.80;;;;;;486799;245;1107;-75
2022/10/01 07:23:02;;;;;;;;;;;22.70;42.70;;;;;;486717;245;1216;-75
2022/10/01 07:25:03;;;;;;;;;;;22.70;42.70;;;;;;486725;245;1188;-74
2022/10/01 07:27:05;;;;;;;;;;;22.80;42.70;;;;;;486744;245;1148;-75
2022/10/01 07:29:07;;;;;;;;;;;22.70;42.80;;;;;;486802;244;2179;-75
2022/10/01 07:31:10;;;;;;;;;;;22.70;42.80;;;;;;486733;245;1431;-75
2022/10/01 07:33:09;;;;;;;;;;;22.70;42.80;;;;;;486383;245;1482;-75
2022/10/01 07:35:10;;;;;;;;;;;22.80;42.80;;;;;;486730;245;1106;-75
2022/10/01 07:37:12;;;;;;;;;;;22.90;42.50;;;;;;486750;245;1073;-74
2022/10/01 07:39:13;;;;;;;;;;;22.80;42.60;;;;;;486812;244;1130;-74
2022/10/01 07:41:16;;;;;;;;;;;22.70;42.80;;;;;;486796;244;1088;-74
2022/10/01 07:43:16;;;;;;;;;;;22.90;42.80;;;;;;486791;245;1464;-75
2022/10/01 07:45:17;;;;;;;;;;;22.80;42.90;;;;;;486690;245;1297;-75
2022/10/01 07:47:19;;;;;;;;;;;22.70;43.00;;;;;;486903;245;1128;-75
2022/10/01 07:49:20;;;;;;;;;;;22.70;43.10;;;;;;486741;245;2199;-75
2022/10/01 07:51:23;;;;;;;;;;;22.70;43.00;;;;;;486893;245;1168;-75
2022/10/01 07:53:23;;;;;;;;;;;22.70;43.00;;;;;;486742;245;1401;-75
2022/10/01 07:55:25;;;;;;;;;;;22.70;43.10;;;;;;486733;244;1268;-75
2022/10/01 07:57:25;;;;;;;;;;;22.70;43.00;;;;;;486764;245;1399;-75
2022/10/01 07:59:27;;;;;;;;;;;22.70;43.00;;;;;;486804;244;1241;-74
2022/10/01 08:01:30;;;;;;;;;;;22.80;43.00;;;;;;486785;245;1131;-74
2022/10/01 08:03:29;;;;;;;;;;;22.70;42.80;;;;;;486582;245;1492;-74
2022/10/01 08:05:31;;;;;;;;;;;22.80;42.80;;;;;;486767;245;1136;-74
2022/10/01 08:07:32;;;;;;;;;;;22.70;42.80;;;;;;486808;245;1248;-74
2022/10/01 08:09:33;;;;;;;;;;;22.70;42.70;;;;;;486886;244;2198;-75
2022/10/01 08:11:36;;;;;;;;;;;22.70;42.60;;;;;;486791;245;1111;-75
2022/10/01 08:13:36;;;;;;;;;;;22.70;42.60;;;;;;486669;245;1432;-75
2022/10/01 08:15:37;;;;;;;;;;;22.70;42.50;;;;;;486869;245;1106;-75
2022/10/01 08:17:39;;;;;;;;;;;22.70;42.50;;;;;;486841;244;1154;-75
2022/10/01 08:19:40;;;;;;;;;;;22.70;42.50;;;;;;486777;245;1149;-75
2022/10/01 08:21:41;;;;;;;;;;;22.80;42.50;;;;;;486794;244;1209;-75
2022/10/01 08:23:43;;;;;;;;;;;22.70;42.40;;;;;;486869;245;1075;-75
2022/10/01 08:25:44;;;;;;;;;;;22.80;42.40;;;;;;486857;244;1163;-75
2022/10/01 08:27:45;;;;;;;;;;;22.80;42.40;;;;;;486786;245;1180;-75
2022/10/01 08:29:47;;;;;;;;;;;22.70;42.30;;;;;;486701;244;2205;-75
2022/10/01 08:31:49;;;;;;;;;;;22.80;42.30;;;;;;486809;245;1054;-75
2022/10/01 08:33:50;;;;;;;;;;;22.80;42.20;;;;;;486693;245;1258;-75
2022/10/01 08:35:51;;;;;;;;;;;22.80;42.10;;;;;;486777;244;1109;-75
2022/10/01 08:37:54;;;;;;;;;;;22.80;42.10;;;;;;486641;245;1051;-74
2022/10/01 08:39:54;;;;;;;;;;;22.70;42.10;;;;;;486712;245;1559;-75
2022/10/01 08:41:56;;;;;;;;;;;22.70;42.10;;;;;;486801;244;1062;-75
2022/10/01 08:43:58;;;;;;;;;;;22.80;42.10;;;;;;486765;245;1129;-74
2022/10/01 08:45:59;;;;;;;;;;;22.80;42.10;;;;;;486853;244;1109;-74
2022/10/01 08:48:01;;;;;;;;;;;22.80;42.00;;;;;;486779;245;1112;-75
2022/10/01 08:50:02;;;;;;;;;;;22.80;42.10;;;;;;486894;245;2235;-75
2022/10/01 08:52:03;;;;;;;;;;;22.80;42.00;;;;;;486761;245;1148;-75
2022/10/01 08:54:05;;;;;;;;;;;22.80;42.10;;;;;;486777;245;1136;-75
2022/10/01 08:56:06;;;;;;;;;;;22.80;42.20;;;;;;486805;244;1120;-75
2022/10/01 08:58:07;;;;;;;;;;;22.80;42.20;;;;;;486733;245;1119;-75
2022/10/01 09:00:09;;;;;;;;;;;22.70;42.30;;;;;;486707;244;1202;-75
2022/10/01 09:02:10;;;;;;;;;;;22.70;42.30;;;;;;486837;244;1076;-75
2022/10/01 09:04:11;;;;;;;;;;;22.80;42.40;;;;;;486613;245;1135;-75
2022/10/01 09:06:13;;;;;;;;;;;22.70;42.30;;;;;;486865;244;1142;-75
2022/10/01 09:08:15;;;;;;;;;;;22.80;42.40;;;;;;486733;245;1255;-75
2022/10/01 09:10:15;;;;;;;;;;;22.80;42.20;;;;;;486839;245;2198;-75
2022/10/01 09:12:17;;;;;;;;;;;22.80;42.20;;;;;;486733;244;1162;-75
2022/10/01 09:14:18;;;;;;;;;;;22.80;42.30;;;;;;486713;245;1639;-74
2022/10/01 09:16:19;;;;;;;;;;;22.80;42.30;;;;;;486763;245;1226;-75
2022/10/01 09:18:21;;;;;;;;;;;22.80;42.40;;;;;;486880;245;1112;-75
2022/10/01 09:20:22;;;;;;;;;;;22.70;42.30;;;;;;486853;245;1134;-75
2022/10/01 09:22:25;;;;;;;;;;;22.70;42.20;;;;;;486786;244;1135;-75
2022/10/01 09:24:25;;;;;;;;;;;22.70;42.20;;;;;;486848;245;1471;-75
2022/10/01 09:26:26;;;;;;;;;;;22.80;42.10;;;;;;486824;245;1251;-75
2022/10/01 09:28:28;;;;;;;;;;;22.80;42.10;;;;;;486757;245;1195;-75
2022/10/01 09:30:29;;;;;;;;;;;22.80;42.00;;;;;;486739;245;2201;-75
2022/10/01 09:32:30;;;;;;;;;;;22.80;41.90;;;;;;486638;244;1253;-75
2022/10/01 09:34:32;;;;;;;;;;;22.80;42.00;;;;;;486674;245;1167;-75
2022/10/01 09:36:33;;;;;;;;;;;22.80;41.90;;;;;;486782;244;1224;-75
2022/10/01 09:38:34;;;;;;;;;;;22.80;41.90;;;;;;486772;245;1337;-75
2022/10/01 09:40:36;;;;;;;;;;;22.80;42.00;;;;;;486822;244;1082;-75
2022/10/01 09:42:37;;;;;;;;;;;22.70;41.90;;;;;;486735;245;1105;-75
2022/10/01 09:44:38;;;;;;;;;;;22.80;42.00;;;;;;486719;244;1095;-75
2022/10/01 09:46:41;;;;;;;;;;;22.80;41.90;;;;;;486824;244;1190;-75
2022/10/01 09:48:42;;;;;;;;;;;22.80;41.80;;;;;;486610;245;2186;-75
2022/10/01 09:50:42;;;;;;;;;;;22.80;41.80;;;;;;486910;245;1087;-75
2022/10/01 09:52:44;;;;;;;;;;;22.80;41.90;;;;;;486731;244;1189;-75
2022/10/01 09:54:45;;;;;;;;;;;22.80;41.70;;;;;;486801;244;1127;-75
2022/10/01 09:56:47;;;;;;;;;;;22.80;41.80;;;;;;486748;245;1150;-75
2022/10/01 09:58:48;;;;;;;;;;;22.80;41.90;;;;;;486749;245;1092;-75
2022/10/01 10:00:50;;;;;;;;;;;22.80;41.80;;;;;;486815;245;1175;-75
2022/10/01 10:02:52;;;;;;;;;;;22.70;41.90;;;;;;486578;244;1130;-75
2022/10/01 10:04:52;;;;;;;;;;;22.70;42.00;;;;;;486654;245;1290;-75
2022/10/01 10:06:54;;;;;;;;;;;22.70;42.10;;;;;;486735;245;1131;-75
2022/10/01 10:08:55;;;;;;;;;;;22.70;42.20;;;;;;486782;245;2190;-75
2022/10/01 10:10:57;;;;;;;;;;;22.70;42.20;;;;;;486739;245;1135;-75
2022/10/01 10:12:58;;;;;;;;;;;22.70;42.20;;;;;;486746;245;1429;-75
2022/10/01 10:14:59;;;;;;;;;;;22.70;42.30;;;;;;486831;244;1093;-75
2022/10/01 10:17:03;;;;;;;;;;;22.70;42.50;;;;;;486785;245;1079;-75
2022/10/01 10:19:02;;;;;;;;;;;22.70;42.40;;;;;;486693;245;1348;-75
2022/10/01 10:21:06;;;;;;;;;;;22.70;42.50;;;;;;486819;245;1152;-75
2022/10/01 10:23:05;;;;;;;;;;;22.60;42.50;;;;;;486627;245;1500;-75
2022/10/01 10:25:06;;;;;;;;;;;22.60;42.70;;;;;;486775;244;1128;-75
2022/10/01 10:27:07;;;;;;;;;;;22.60;42.90;;;;;;486792;245;1154;-75
2022/10/01 10:29:09;;;;;;;;;;;22.60;43.10;;;;;;486753;244;2163;-75
2022/10/01 10:31:10;;;;;;;;;;;22.50;43.10;;;;;;486730;245;1143;-74
2022/10/01 10:33:12;;;;;;;;;;;22.60;43.10;;;;;;486520;244;1308;-74
2022/10/01 10:35:13;;;;;;;;;;;22.60;43.20;;;;;;486758;245;1167;-75
2022/10/01 10:37:14;;;;;;;;;;;22.60;43.20;;;;;;486751;245;1072;-75
2022/10/01 10:39:15;;;;;;;;;;;22.60;43.30;;;;;;486729;245;1099;-75
2022/10/01 10:41:18;;;;;;;;;;;22.70;43.30;;;;;;486757;245;1066;-75
2022/10/01 10:43:18;;;;;;;;;;;22.70;43.40;;;;;;486715;245;1478;-75
2022/10/01 10:45:19;;;;;;;;;;;22.70;43.50;;;;;;486749;245;1138;-75
2022/10/01 10:47:21;;;;;;;;;;;22.60;43.60;;;;;;486759;244;1055;-75
2022/10/01 10:49:22;;;;;;;;;;;22.60;43.90;;;;;;486786;244;2198;-75
2022/10/01 10:51:25;;;;;;;;;;;22.60;44.00;;;;;;486818;244;1227;-75
2022/10/01 10:53:25;;;;;;;;;;;22.60;44.10;;;;;;486684;245;1498;-75
2022/10/01 10:55:27;;;;;;;;;;;22.60;44.10;;;;;;486739;245;1116;-74
2022/10/01 10:57:27;;;;;;;;;;;22.60;44.10;;;;;;486898;244;1100;-74
2022/10/01 10:59:30;;;;;;;;;;;22.60;44.30;;;;;;486703;245;1111;-74
2022/10/01 11:01:31;;;;;;;;;;;22.70;44.40;;;;;;486782;244;1152;-75
2022/10/01 11:03:33;;;;;;;;;;;22.70;44.40;;;;;;486595;245;1226;-74
2022/10/01 11:05:34;;;;;;;;;;;22.70;44.40;;;;;;486895;244;1079;-75
2022/10/01 11:07:35;;;;;;;;;;;22.60;44.40;;;;;;486887;245;1140;-75
2022/10/01 11:09:37;;;;;;;;;;;22.70;44.70;;;;;;486814;245;2194;-75
2022/10/01 11:11:38;;;;;;;;;;;22.60;44.70;;;;;;486723;245;1256;-75
2022/10/01 11:13:39;;;;;;;;;;;22.70;44.70;;;;;;486867;245;1280;-75
2022/10/01 11:15:42;;;;;;;;;;;22.70;44.80;;;;;;486797;245;1190;-75
2022/10/01 11:17:42;;;;;;;;;;;22.70;44.70;;;;;;486761;244;1145;-75
2022/10/01 11:19:44;;;;;;;;;;;22.70;44.80;;;;;;486762;245;1150;-75
2022/10/01 11:21:47;;;;;;;;;;;22.70;44.90;;;;;;486859;245;1120;-74
2022/10/01 11:23:47;;;;;;;;;;;22.70;44.80;;;;;;486701;245;1416;-74
2022/10/01 11:25:48;;;;;;;;;;;22.70;44.90;;;;;;486790;244;1280;-74
2022/10/01 11:27:49;;;;;;;;;;;22.70;45.00;;;;;;486782;245;1092;-74
2022/10/01 11:29:51;;;;;;;;;;;22.70;45.00;;;;;;486789;244;2201;-74
2022/10/01 11:31:52;;;;;;;;;;;22.70;45.00;;;;;;486853;245;1389;-75
2022/10/01 11:33:54;;;;;;;;;;;22.70;45.10;;;;;;486513;245;1075;-75
2022/10/01 11:35:55;;;;;;;;;;;22.70;45.20;;;;;;486710;244;1397;-75
2022/10/01 11:37:58;;;;;;;;;;;22.70;45.20;;;;;;486764;245;1177;-75
2022/10/01 11:39:58;;;;;;;;;;;22.70;45.20;;;;;;486798;245;1475;-75
2022/10/01 11:41:59;;;;;;;;;;;22.70;45.20;;;;;;486856;245;1099;-75
2022/10/01 11:44:00;;;;;;;;;;;22.80;45.20;;;;;;486771;245;1119;-74
2022/10/01 11:46:02;;;;;;;;;;;22.80;45.30;;;;;;486742;245;1199;-74
2022/10/01 11:48:03;;;;;;;;;;;22.70;45.40;;;;;;486733;245;1131;-74
2022/10/01 11:50:05;;;;;;;;;;;22.70;45.40;;;;;;486775;245;2191;-74
2022/10/01 11:52:06;;;;;;;;;;;22.70;45.40;;;;;;486849;244;1076;-75
2022/10/01 11:54:07;;;;;;;;;;;22.70;45.40;;;;;;486734;244;1171;-75
2022/10/01 12:00:47;;;;;;;;;;;22.70;45.40;;;;;;486724;245;1222;-75
2022/10/01 12:02:49;;;;;;;;;;;22.70;45.50;;;;;;486600;245;1120;-75
2022/10/01 12:04:50;;;;;;;;;;;22.70;45.50;;;;;;486812;245;1075;-74